Time;durP1;ratioP1;P1;durP2;ratioP2;P2;SDS_P1;SDS_P2;PMS_P1;PMS_P2;Temp;Humidity;BMP_temperature;BMP_pressure;BME280_temperature;BME280_humidity;BME280_pressure;Samples;Min_cycle;Max_cycle;Signal;HPM_P1;HPM_P2
2023/01/17 00:01:46;;;;;;;2.30;1.75;;;2.60;99.90;;;;;;4922146;29;20276;-67
2023/01/17 00:09:55;;;;;;;2.22;2.03;;;2.50;99.90;;;;;;4916352;29;20291;-67
2023/01/17 00:12:24;;;;;;;2.05;1.85;;;2.50;99.90;;;;;;4923685;29;20662;-67
2023/01/17 00:14:53;;;;;;;2.13;1.95;;;2.50;99.90;;;;;;4927874;29;20225;-67
2023/01/17 00:17:22;;;;;;;2.25;1.75;;;2.50;99.90;;;;;;4928641;29;20208;-67
2023/01/17 01:34:48;;;;;;;2.25;1.85;;;2.90;99.90;;;;;;4926366;29;20575;-67
2023/01/17 01:37:16;;;;;;;1.77;1.67;;;2.90;99.90;;;;;;4923150;29;20560;-67
2023/01/17 01:39:43;;;;;;;2.50;1.63;;;2.90;99.90;;;;;;4932480;29;20280;-67
2023/01/17 01:42:15;;;;;;;1.70;1.50;;;2.90;99.90;;;;;;4928231;29;20205;-67
2023/01/17 01:44:47;;;;;;;1.92;1.83;;;2.90;99.90;;;;;;4925380;29;20587;-67
2023/01/17 01:47:24;;;;;;;2.55;1.80;;;2.90;99.90;;;;;;4930058;29;20209;-67
2023/01/17 01:49:52;;;;;;;2.10;1.80;;;2.90;99.90;;;;;;4930747;29;20200;-67
2023/01/17 01:52:23;;;;;;;2.08;1.88;;;2.90;99.90;;;;;;4925967;29;20202;-67
2023/01/17 01:54:53;;;;;;;2.00;1.90;;;2.90;99.90;;;;;;4935258;29;20578;-67
2023/01/17 01:57:24;;;;;;;3.63;1.80;;;2.90;99.90;;;;;;4919221;29;21890;-67
2023/01/17 01:59:54;;;;;;;1.88;1.40;;;2.90;99.90;;;;;;4917264;29;20682;-67
2023/01/17 02:02:21;;;;;;;3.50;1.88;;;2.90;99.90;;;;;;4923665;29;20208;-67
2023/01/17 02:04:49;;;;;;;2.97;2.13;;;2.90;99.90;;;;;;4927604;29;20214;-67
2023/01/17 02:07:23;;;;;;;2.00;1.90;;;2.90;99.90;;;;;;4933585;29;20721;-67
2023/01/17 02:09:51;;;;;;;2.63;2.42;;;2.90;99.90;;;;;;4928639;29;20202;-67
2023/01/17 02:12:19;;;;;;;1.90;1.80;;;3.00;99.90;;;;;;4927454;29;20206;-67
2023/01/17 02:14:46;;;;;;;3.53;2.25;;;3.00;99.90;;;;;;4926946;29;20227;-67
2023/01/17 02:17:24;;;;;;;2.53;1.88;;;3.00;99.90;;;;;;4921180;29;20207;-67
2023/01/17 02:20:23;;;;;;;2.35;2.00;;;3.00;99.90;;;;;;4928031;29;20765;-67
2023/01/17 02:23:20;;;;;;;3.10;2.25;;;3.10;99.90;;;;;;4924272;29;20223;-67
2023/01/17 02:26:21;;;;;;;4.53;2.28;;;3.00;99.90;;;;;;4922933;29;20223;-67
2023/01/17 02:29:09;;;;;;;3.10;2.13;;;3.00;99.90;;;;;;4925111;29;20206;-67
2023/01/17 02:31:43;;;;;;;2.53;1.90;;;3.00;99.90;;;;;;4926477;29;20226;-67
2023/01/17 02:34:16;;;;;;;2.80;2.22;;;3.00;99.90;;;;;;4929221;29;20199;-67
2023/01/17 02:36:48;;;;;;;1.75;1.65;;;3.10;99.90;;;;;;4924332;29;20563;-67
2023/01/17 02:39:20;;;;;;;1.98;1.77;;;3.10;99.90;;;;;;4924817;29;20730;-67
2023/01/17 02:41:51;;;;;;;2.05;1.80;;;3.10;99.90;;;;;;4918990;29;20219;-67
2023/01/17 02:44:20;;;;;;;2.63;1.90;;;3.10;99.90;;;;;;4930522;29;20227;-67
2023/01/17 02:46:51;;;;;;;1.52;1.42;;;3.10;99.90;;;;;;4929199;29;20204;-67
2023/01/17 02:49:21;;;;;;;2.00;1.67;;;3.10;99.90;;;;;;4921616;29;20277;-67
2023/01/17 02:52:05;;;;;;;2.47;1.60;;;3.20;99.90;;;;;;4931471;29;20603;-67
2023/01/17 02:54:53;;;;;;;2.15;1.70;;;3.20;99.90;;;;;;4932663;29;20222;-67
2023/01/17 02:57:39;;;;;;;2.10;1.88;;;3.10;99.90;;;;;;4928192;29;20402;-67
2023/01/17 03:00:17;;;;;;;2.15;1.85;;;3.10;99.90;;;;;;4923580;29;20215;-67
2023/01/17 03:02:57;;;;;;;2.63;1.65;;;3.10;99.90;;;;;;4925729;29;20731;-67
2023/01/17 03:05:29;;;;;;;3.13;1.83;;;3.10;99.90;;;;;;4929591;29;20240;-67
2023/01/17 03:07:56;;;;;;;2.42;1.45;;;3.10;99.90;;;;;;4931350;29;20630;-67
2023/01/17 03:10:24;;;;;;;2.13;1.60;;;3.10;99.90;;;;;;4929197;29;20291;-67
2023/01/17 03:12:57;;;;;;;2.67;1.45;;;3.10;99.90;;;;;;4930154;29;20213;-67
2023/01/17 03:15:24;;;;;;;3.13;1.70;;;3.20;99.90;;;;;;4929708;29;20306;-68
2023/01/17 03:17:55;;;;;;;1.63;1.52;;;3.20;99.90;;;;;;4931513;29;20208;-67
2023/01/17 03:20:22;;;;;;;1.52;1.20;;;3.20;99.90;;;;;;4923333;29;20236;-67
2023/01/17 03:22:49;;;;;;;1.85;1.50;;;3.20;99.90;;;;;;4929254;29;20200;-67
2023/01/17 03:25:16;;;;;;;2.20;1.50;;;3.20;99.90;;;;;;4931397;29;20704;-67
2023/01/17 03:27:43;;;;;;;1.50;1.40;;;3.20;99.90;;;;;;4919682;29;20196;-67
2023/01/17 03:30:11;;;;;;;1.20;1.10;;;3.20;99.90;;;;;;4924557;29;20228;-67
2023/01/17 03:32:39;;;;;;;1.65;1.52;;;3.20;99.90;;;;;;4923241;29;20215;-66
2023/01/17 03:35:08;;;;;;;1.83;1.20;;;3.20;99.90;;;;;;4927336;29;20313;-67
2023/01/17 03:37:35;;;;;;;1.95;1.25;;;3.20;99.90;;;;;;4927629;29;20208;-66
2023/01/17 03:40:02;;;;;;;1.95;1.60;;;3.20;99.90;;;;;;4923791;29;20226;-66
2023/01/17 03:42:29;;;;;;;3.05;1.42;;;3.10;99.90;;;;;;4920333;29;20245;-67
2023/01/17 03:44:56;;;;;;;1.55;1.30;;;3.10;99.90;;;;;;4929407;29;20722;-66
2023/01/17 03:47:23;;;;;;;1.50;1.30;;;3.10;99.90;;;;;;4927127;29;20209;-66
2023/01/17 03:49:51;;;;;;;1.45;1.35;;;3.00;99.90;;;;;;4924777;29;20202;-66
2023/01/17 03:52:19;;;;;;;1.60;1.50;;;3.00;99.90;;;;;;4931121;29;20211;-67
2023/01/17 03:54:47;;;;;;;1.60;1.38;;;3.00;99.90;;;;;;4931408;29;20224;-66
2023/01/17 03:57:14;;;;;;;1.77;1.60;;;2.90;99.90;;;;;;4932455;29;20295;-67
2023/01/17 03:59:41;;;;;;;2.30;1.58;;;2.70;99.90;;;;;;4923528;29;20705;-66
2023/01/17 04:02:08;;;;;;;2.05;1.90;;;2.60;99.90;;;;;;4931420;29;20199;-66
2023/01/17 04:04:35;;;;;;;2.28;2.08;;;2.60;99.90;;;;;;4924290;29;20222;-67
2023/01/17 04:07:02;;;;;;;2.47;2.25;;;2.50;99.90;;;;;;4931102;29;20233;-67
2023/01/17 04:09:32;;;;;;;2.03;1.75;;;2.50;99.90;;;;;;4926870;29;20198;-66
2023/01/17 04:11:59;;;;;;;2.10;1.90;;;2.40;99.90;;;;;;4925309;29;20199;-66
2023/01/17 04:14:26;;;;;;;1.95;1.75;;;2.40;99.90;;;;;;4926810;29;20259;-67
2023/01/17 04:16:53;;;;;;;2.47;2.25;;;2.40;99.90;;;;;;4928596;29;20558;-67
2023/01/17 04:19:21;;;;;;;2.00;1.73;;;2.30;99.90;;;;;;4928996;29;20617;-66
2023/01/17 04:21:48;;;;;;;2.20;2.10;;;2.30;99.90;;;;;;4933409;29;20209;-66
2023/01/17 04:24:15;;;;;;;2.50;2.28;;;2.30;99.90;;;;;;4921605;29;20572;-67
2023/01/17 04:26:43;;;;;;;3.20;2.03;;;2.30;99.90;;;;;;4931084;29;20658;-67
2023/01/17 04:29:10;;;;;;;2.40;2.20;;;2.30;99.90;;;;;;4929810;29;20211;-67
2023/01/17 04:31:37;;;;;;;1.65;1.55;;;2.30;99.90;;;;;;4923581;29;20202;-66
2023/01/17 04:34:04;;;;;;;1.83;1.73;;;2.20;99.90;;;;;;4924987;29;20217;-66
2023/01/17 04:36:31;;;;;;;2.33;2.15;;;2.20;99.90;;;;;;4930934;29;20212;-67
2023/01/17 04:38:58;;;;;;;1.58;1.48;;;2.20;99.90;;;;;;4940791;29;20217;-67
2023/01/17 04:41:25;;;;;;;1.38;1.27;;;2.20;99.90;;;;;;4923170;29;20206;-66
2023/01/17 04:43:53;;;;;;;2.65;1.48;;;2.20;99.90;;;;;;4923701;29;20297;-66
2023/01/17 04:46:20;;;;;;;1.55;1.27;;;2.20;99.90;;;;;;4921842;29;20338;-67
2023/01/17 04:48:47;;;;;;;1.50;1.40;;;2.30;99.90;;;;;;4922508;29;20285;-67
2023/01/17 04:51:14;;;;;;;1.30;1.20;;;2.30;99.90;;;;;;4922118;29;20254;-67
2023/01/17 04:53:42;;;;;;;1.23;1.13;;;2.40;99.90;;;;;;4917048;29;20299;-67
2023/01/17 04:56:09;;;;;;;1.30;1.20;;;2.40;99.90;;;;;;4918553;29;20206;-67
2023/01/17 04:58:36;;;;;;;1.45;1.35;;;2.40;99.90;;;;;;4915844;29;20203;-67
2023/01/17 05:01:06;;;;;;;2.00;1.13;;;2.40;99.90;;;;;;4923555;29;20265;-67
2023/01/17 05:03:34;;;;;;;2.70;1.27;;;2.40;99.90;;;;;;4924133;29;20559;-67
2023/01/17 05:06:02;;;;;;;1.70;1.33;;;2.40;99.90;;;;;;4936097;29;20217;-66
2023/01/17 05:08:29;;;;;;;1.70;1.05;;;2.50;99.90;;;;;;4925626;29;20207;-66
2023/01/17 05:10:56;;;;;;;1.10;1.00;;;2.40;99.90;;;;;;4921641;29;20209;-67
2023/01/17 05:13:23;;;;;;;1.13;1.00;;;2.50;99.90;;;;;;4926729;29;20206;-66
2023/01/17 05:15:50;;;;;;;1.33;1.23;;;2.50;99.90;;;;;;4924631;29;20249;-67
2023/01/17 05:18:19;;;;;;;1.50;1.40;;;2.50;99.90;;;;;;4920848;29;20268;-67
2023/01/17 05:20:46;;;;;;;1.40;1.23;;;2.50;99.90;;;;;;4921070;29;20274;-68
2023/01/17 05:23:13;;;;;;;2.15;1.23;;;2.50;99.90;;;;;;4924166;29;20225;-68
2023/01/17 05:25:43;;;;;;;2.40;1.60;;;2.50;99.90;;;;;;4925960;29;20218;-68
2023/01/17 05:28:11;;;;;;;1.30;1.20;;;2.50;99.90;;;;;;4922009;29;20270;-67
2023/01/17 05:30:38;;;;;;;2.30;1.70;;;2.50;99.90;;;;;;4918489;29;20685;-67
2023/01/17 05:33:06;;;;;;;3.38;1.65;;;2.40;99.90;;;;;;4929974;29;20289;-67
2023/01/17 05:35:35;;;;;;;1.90;1.50;;;2.30;99.90;;;;;;4915163;29;20249;-68
2023/01/17 05:38:02;;;;;;;1.60;1.50;;;2.30;99.90;;;;;;4917040;29;20305;-68
2023/01/17 05:40:31;;;;;;;1.75;1.50;;;2.20;99.90;;;;;;4924606;29;20226;-68
2023/01/17 05:43:00;;;;;;;1.63;1.52;;;2.10;99.90;;;;;;4931772;29;20217;-67
2023/01/17 05:45:29;;;;;;;2.95;1.70;;;2.00;99.90;;;;;;4932095;29;20218;-67
2023/01/17 05:47:57;;;;;;;1.60;1.50;;;2.00;99.90;;;;;;4918778;29;20371;-67
2023/01/17 05:50:27;;;;;;;1.60;1.50;;;1.90;99.90;;;;;;4924717;29;20311;-67
2023/01/17 05:52:57;;;;;;;5.47;1.95;;;1.90;99.90;;;;;;4923022;29;20554;-67
2023/01/17 05:55:26;;;;;;;2.88;2.00;;;1.80;99.90;;;;;;4925220;29;20253;-67
2023/01/17 05:57:53;;;;;;;2.10;1.70;;;1.80;99.90;;;;;;4927444;29;20205;-67
2023/01/17 06:00:21;;;;;;;1.83;1.73;;;1.70;99.90;;;;;;4925742;29;20210;-69
2023/01/17 06:02:49;;;;;;;1.90;1.80;;;1.60;99.90;;;;;;4927891;29;20570;-67
2023/01/17 06:05:16;;;;;;;2.33;2.03;;;1.60;99.90;;;;;;4921014;29;20643;-67
2023/01/17 06:07:44;;;;;;;2.38;2.10;;;1.60;99.90;;;;;;4928447;29;20338;-67
2023/01/17 06:10:14;;;;;;;2.50;1.75;;;1.60;99.90;;;;;;4925831;29;20651;-67
2023/01/17 06:12:41;;;;;;;2.75;1.63;;;1.50;99.90;;;;;;4930447;29;20202;-67
2023/01/17 06:15:09;;;;;;;3.10;1.80;;;1.50;99.90;;;;;;4925382;29;20272;-67
2023/01/17 06:17:36;;;;;;;3.25;1.98;;;1.40;99.90;;;;;;4926085;29;20543;-67
2023/01/17 06:20:05;;;;;;;2.22;1.98;;;1.40;99.90;;;;;;4930601;29;20234;-67
2023/01/17 06:22:32;;;;;;;1.98;1.75;;;1.40;99.90;;;;;;4926797;29;20202;-67
2023/01/17 06:25:00;;;;;;;1.98;1.77;;;1.40;99.90;;;;;;4925890;29;20223;-67
2023/01/17 06:27:28;;;;;;;2.85;2.00;;;1.40;99.90;;;;;;4930797;29;20239;-67
2023/01/17 06:29:55;;;;;;;1.70;1.50;;;1.40;99.90;;;;;;4932308;29;20841;-68
2023/01/17 06:32:22;;;;;;;2.40;1.70;;;1.40;99.90;;;;;;4929272;29;20197;-67
2023/01/17 06:34:49;;;;;;;4.63;1.90;;;1.40;99.90;;;;;;4923047;29;20226;-67
2023/01/17 06:37:16;;;;;;;3.10;2.13;;;1.20;99.90;;;;;;4927072;29;20206;-66
2023/01/17 06:39:43;;;;;;;4.10;1.88;;;1.50;99.90;;;;;;4922986;29;20198;-66
2023/01/17 06:42:10;;;;;;;3.30;2.10;;;1.50;99.90;;;;;;4925246;29;20223;-67
2023/01/17 06:44:39;;;;;;;4.63;2.80;;;1.50;99.90;;;;;;4932899;29;20226;-67
2023/01/17 06:47:05;;;;;;;3.38;2.17;;;1.50;99.90;;;;;;4933074;29;20194;-67
2023/01/17 06:49:32;;;;;;;3.75;2.10;;;1.50;99.90;;;;;;4924485;29;20197;-68
2023/01/17 06:51:59;;;;;;;3.05;1.60;;;1.60;99.90;;;;;;4924242;29;20207;-68
2023/01/17 06:54:26;;;;;;;2.70;1.85;;;1.60;99.90;;;;;;4926709;29;21104;-68
2023/01/17 06:56:53;;;;;;;3.00;1.95;;;1.60;99.90;;;;;;4930568;29;20197;-67
2023/01/17 06:59:21;;;;;;;2.83;1.73;;;1.60;99.90;;;;;;4923800;29;20267;-69
2023/01/17 07:01:49;;;;;;;2.90;1.90;;;1.60;99.90;;;;;;4928148;29;20233;-68
2023/01/17 07:04:16;;;;;;;2.33;1.83;;;1.50;99.90;;;;;;4919105;29;20385;-68
2023/01/17 07:06:43;;;;;;;4.38;1.90;;;1.50;99.90;;;;;;4936616;29;20208;-68
2023/01/17 07:09:10;;;;;;;2.10;1.90;;;1.50;99.90;;;;;;4934155;29;20217;-68
2023/01/17 07:11:37;;;;;;;4.18;1.85;;;1.50;99.90;;;;;;4923652;29;20241;-67
2023/01/17 07:14:04;;;;;;;3.78;2.20;;;1.40;99.90;;;;;;4923509;29;20298;-68
2023/01/17 07:16:31;;;;;;;2.40;2.20;;;1.40;99.90;;;;;;4927128;29;20232;-68
2023/01/17 07:18:59;;;;;;;3.00;2.20;;;1.40;99.90;;;;;;4926237;29;20210;-68
2023/01/17 07:21:26;;;;;;;2.75;2.05;;;1.40;99.90;;;;;;4931661;29;20226;-68
2023/01/17 07:23:53;;;;;;;2.63;2.03;;;1.40;99.90;;;;;;4920890;29;20217;-68
2023/01/17 07:26:20;;;;;;;2.35;2.00;;;1.40;99.90;;;;;;4918806;29;20298;-69
2023/01/17 07:28:47;;;;;;;2.30;1.63;;;1.30;99.90;;;;;;4921875;29;20199;-68
2023/01/17 07:31:14;;;;;;;5.85;2.45;;;1.30;99.90;;;;;;4923763;29;20213;-68
2023/01/17 07:33:41;;;;;;;3.10;1.90;;;1.30;99.90;;;;;;4917268;29;20719;-68
2023/01/17 07:36:10;;;;;;;3.40;2.38;;;1.30;99.90;;;;;;4920283;29;20726;-68
2023/01/17 07:38:37;;;;;;;3.05;2.28;;;1.20;99.90;;;;;;4925347;29;20194;-67
2023/01/17 07:41:04;;;;;;;2.40;2.20;;;1.20;99.90;;;;;;4920421;29;20324;-67
2023/01/17 07:43:32;;;;;;;2.45;2.17;;;1.20;99.90;;;;;;4915124;29;20202;-67
2023/01/17 07:45:58;;;;;;;3.72;2.40;;;1.20;99.90;;;;;;4914831;29;20270;-67
2023/01/17 07:48:25;;;;;;;2.72;2.15;;;1.30;99.90;;;;;;4915065;29;20285;-67
2023/01/17 07:50:54;;;;;;;2.80;2.47;;;1.30;99.90;;;;;;4915277;29;20198;-67
2023/01/17 07:53:23;;;;;;;2.58;1.90;;;1.40;99.90;;;;;;4914646;29;20294;-67
2023/01/17 07:55:51;;;;;;;2.60;2.30;;;1.40;99.90;;;;;;4916680;29;20209;-67
2023/01/17 07:58:18;;;;;;;2.95;2.38;;;1.50;99.90;;;;;;4914770;29;20205;-66
2023/01/17 08:00:45;;;;;;;2.78;2.40;;;1.50;99.90;;;;;;4914588;29;20221;-67
2023/01/17 08:03:15;;;;;;;3.85;2.47;;;1.50;99.90;;;;;;4922663;29;20572;-66
2023/01/17 08:05:44;;;;;;;3.15;2.40;;;1.50;99.90;;;;;;4924613;29;20245;-66
2023/01/17 08:08:10;;;;;;;3.03;2.65;;;1.50;99.90;;;;;;4921891;29;20198;-67
2023/01/17 08:10:39;;;;;;;3.75;2.70;;;1.60;99.90;;;;;;4915018;29;20285;-67
2023/01/17 08:13:06;;;;;;;5.05;2.25;;;1.60;99.90;;;;;;4919165;29;20260;-67
2023/01/17 08:15:33;;;;;;;3.78;2.30;;;1.60;99.90;;;;;;4921317;29;20214;-67
2023/01/17 08:18:00;;;;;;;2.83;2.55;;;1.70;99.90;;;;;;4916645;29;20202;-67
2023/01/17 08:20:27;;;;;;;4.30;2.28;;;1.70;99.90;;;;;;4915527;29;20327;-67
2023/01/17 08:22:55;;;;;;;4.15;2.33;;;1.70;99.90;;;;;;4914648;29;20211;-67
2023/01/17 08:25:23;;;;;;;4.75;2.53;;;1.70;99.90;;;;;;4914603;29;20223;-67
2023/01/17 08:27:55;;;;;;;6.88;2.83;;;1.80;99.90;;;;;;4919362;29;20210;-67
2023/01/17 08:30:22;;;;;;;3.40;2.50;;;1.90;99.90;;;;;;4927358;29;20677;-67
2023/01/17 08:32:49;;;;;;;2.72;2.40;;;1.90;99.90;;;;;;4917831;29;20199;-66
2023/01/17 08:35:18;;;;;;;3.65;2.78;;;2.00;99.90;;;;;;4916911;29;20301;-66
2023/01/17 08:37:45;;;;;;;5.00;3.00;;;2.10;99.90;;;;;;4926599;29;20206;-66
2023/01/17 08:40:15;;;;;;;3.90;2.72;;;2.20;99.90;;;;;;4927671;29;20236;-67
2023/01/17 08:42:43;;;;;;;3.63;2.50;;;2.40;99.90;;;;;;4925342;29;20203;-67
2023/01/17 08:45:13;;;;;;;3.08;2.75;;;2.50;99.90;;;;;;4922157;29;20234;-66
2023/01/17 08:47:40;;;;;;;4.43;3.13;;;2.60;99.90;;;;;;4920857;29;20312;-67
2023/01/17 08:50:08;;;;;;;3.28;2.72;;;2.60;99.90;;;;;;4918563;29;20200;-67
2023/01/17 08:52:35;;;;;;;3.45;2.80;;;2.60;99.90;;;;;;4922390;29;20261;-68
2023/01/17 08:55:04;;;;;;;8.35;3.65;;;2.60;99.90;;;;;;4918369;29;20239;-67
2023/01/17 08:57:31;;;;;;;4.68;3.10;;;2.60;99.90;;;;;;4919424;29;20229;-67
2023/01/17 08:59:58;;;;;;;6.20;3.50;;;2.60;99.90;;;;;;4918896;29;20289;-67
2023/01/17 09:02:26;;;;;;;9.45;3.95;;;2.70;99.90;;;;;;4927427;29;20321;-67
2023/01/17 09:04:54;;;;;;;5.22;3.40;;;2.70;99.90;;;;;;4917734;29;20253;-67
2023/01/17 09:07:21;;;;;;;4.95;3.80;;;2.90;99.90;;;;;;4925059;29;20202;-67
2023/01/17 09:09:48;;;;;;;4.07;3.28;;;3.00;99.90;;;;;;4917816;29;20190;-66
2023/01/17 09:12:15;;;;;;;4.25;3.85;;;3.30;99.90;;;;;;4924248;29;20258;-66
2023/01/17 09:14:42;;;;;;;5.05;3.80;;;3.90;99.90;;;;;;4921738;29;20237;-66
2023/01/17 09:17:09;;;;;;;5.38;3.95;;;4.70;99.90;;;;;;4925430;29;20198;-67
2023/01/17 09:19:40;;;;;;;4.60;3.50;;;5.30;99.90;;;;;;4923732;29;20776;-67
2023/01/17 09:22:08;;;;;;;6.40;3.60;;;6.00;99.90;;;;;;4919885;29;20220;-67
2023/01/17 09:24:35;;;;;;;4.35;3.83;;;6.50;99.90;;;;;;4917660;29;20279;-68
2023/01/17 09:27:03;;;;;;;4.60;3.10;;;6.60;99.90;;;;;;4917495;29;20196;-67
2023/01/17 09:29:30;;;;;;;3.05;2.75;;;6.90;99.90;;;;;;4917355;29;20208;-67
2023/01/17 09:31:57;;;;;;;3.17;2.63;;;7.00;99.90;;;;;;4924189;29;20199;-67
2023/01/17 09:34:24;;;;;;;3.45;2.90;;;7.10;99.90;;;;;;4925740;29;20251;-67
2023/01/17 09:36:53;;;;;;;3.63;2.95;;;7.40;99.90;;;;;;4921946;29;20291;-66
2023/01/17 09:39:20;;;;;;;4.05;3.65;;;7.70;99.90;;;;;;4935348;29;20215;-66
2023/01/17 09:41:54;;;;;;;4.18;3.22;;;8.00;99.90;;;;;;4922001;29;20227;-67
2023/01/17 09:44:27;;;;;;;3.53;2.80;;;8.20;99.90;;;;;;4917447;29;20220;-67
2023/01/17 09:46:57;;;;;;;3.38;2.70;;;8.50;99.90;;;;;;4925177;29;20202;-67
2023/01/17 09:49:33;;;;;;;4.00;2.30;;;8.80;99.90;;;;;;4917441;29;20277;-67
2023/01/17 09:52:02;;;;;;;3.30;2.65;;;9.00;99.90;;;;;;4917021;29;20209;-66
2023/01/17 09:54:34;;;;;;;4.25;3.22;;;9.00;99.90;;;;;;4916995;29;20308;-66
2023/01/17 09:57:12;;;;;;;2.40;2.13;;;9.20;99.90;;;;;;4928102;29;20304;-66
2023/01/17 09:59:50;;;;;;;2.85;1.83;;;9.50;99.90;;;;;;4918193;29;20280;-67
2023/01/17 10:02:33;;;;;;;2.20;1.80;;;9.80;99.90;;;;;;4916996;29;20255;-67
2023/01/17 10:05:24;;;;;;;2.47;2.28;;;10.10;99.90;;;;;;4922923;29;20273;-66
2023/01/17 10:08:21;;;;;;;4.03;2.77;;;10.40;99.90;;;;;;4916601;29;20627;-67
2023/01/17 10:10:57;;;;;;;2.40;1.97;;;10.80;99.90;;;;;;4919970;29;20550;-68
2023/01/17 10:13:35;;;;;;;2.90;2.42;;;11.00;99.90;;;;;;4920970;29;20487;-67
2023/01/17 10:16:16;;;;;;;2.53;2.22;;;10.80;99.90;;;;;;4925404;29;20233;-67
2023/01/17 10:19:18;;;;;;;2.22;2.00;;;11.00;99.90;;;;;;4930681;29;20199;-67
2023/01/17 10:22:03;;;;;;;2.80;2.40;;;11.50;99.90;;;;;;4916667;29;20223;-68
2023/01/17 10:24:50;;;;;;;3.60;3.00;;;12.00;99.90;;;;;;4922085;29;20509;-68
2023/01/17 10:27:23;;;;;;;3.50;3.20;;;12.50;99.90;;;;;;4919623;29;20458;-67
2023/01/17 10:29:52;;;;;;;5.40;4.90;;;12.30;96.90;;;;;;4919951;29;20858;-67
2023/01/17 10:32:24;;;;;;;3.73;3.17;;;11.50;98.10;;;;;;4920054;29;20467;-67
2023/01/17 10:34:53;;;;;;;2.20;2.00;;;11.30;99.50;;;;;;4916265;29;20478;-67
2023/01/17 10:37:24;;;;;;;3.50;2.90;;;11.50;99.90;;;;;;4925192;29;20208;-68
2023/01/17 10:39:55;;;;;;;3.23;3.03;;;12.00;99.90;;;;;;4926716;29;20455;-66
2023/01/17 10:42:26;;;;;;;3.10;2.80;;;12.50;97.50;;;;;;4922276;29;20483;-68
2023/01/17 10:45:02;;;;;;;4.47;2.93;;;12.20;97.50;;;;;;4921299;29;20482;-67
2023/01/17 10:47:35;;;;;;;3.17;2.63;;;12.50;97.80;;;;;;4919700;29;20459;-67
2023/01/17 10:50:04;;;;;;;3.13;2.83;;;12.80;97.30;;;;;;4918116;29;20503;-67
2023/01/17 10:52:42;;;;;;;2.67;2.20;;;12.90;96.00;;;;;;4920492;29;21145;-67
2023/01/17 10:55:23;;;;;;;3.97;2.30;;;12.80;96.70;;;;;;4916074;29;20480;-67
2023/01/17 10:57:50;;;;;;;2.40;2.20;;;12.90;96.90;;;;;;4921064;29;20862;-67
2023/01/17 11:00:38;;;;;;;2.97;2.27;;;13.20;96.50;;;;;;4928652;29;20981;-67
2023/01/17 11:03:10;;;;;;;6.20;2.13;;;13.00;95.30;;;;;;4920141;29;20488;-67
2023/01/17 11:05:39;;;;;;;2.10;1.80;;;12.50;95.30;;;;;;4921954;29;20816;-68
2023/01/17 11:08:08;;;;;;;2.20;1.60;;;12.40;96.40;;;;;;4915861;29;20460;-66
2023/01/17 11:10:54;;;;;;;2.60;1.37;;;12.40;95.10;;;;;;4922519;29;20834;-67
2023/01/17 11:13:25;;;;;;;1.13;1.00;;;12.60;94.20;;;;;;4922009;29;20583;-67
2023/01/17 11:15:56;;;;;;;1.50;1.17;;;12.60;91.50;;;;;;4919232;29;20542;-67
2023/01/17 11:18:27;;;;;;;1.90;1.10;;;12.10;92.00;;;;;;4915542;29;20542;-67
2023/01/17 11:21:10;;;;;;;1.10;1.00;;;12.10;91.80;;;;;;4919588;29;20550;-68
2023/01/17 11:23:40;;;;;;;1.80;1.20;;;11.70;91.90;;;;;;4915716;29;20479;-67
2023/01/17 11:26:11;;;;;;;1.45;1.27;;;11.20;91.90;;;;;;4926271;29;20201;-68
2023/01/17 11:28:40;;;;;;;1.70;1.23;;;11.10;93.00;;;;;;4921770;29;20217;-68
2023/01/17 11:31:25;;;;;;;1.88;1.20;;;11.30;92.30;;;;;;4921724;29;20293;-68
2023/01/17 11:34:08;;;;;;;2.67;1.20;;;11.30;92.00;;;;;;4915235;29;20217;-67
2023/01/17 11:36:35;;;;;;;3.15;1.40;;;11.10;92.50;;;;;;4915410;29;20186;-68
2023/01/17 11:39:05;;;;;;;1.33;1.20;;;11.20;91.60;;;;;;4919940;29;20228;-68
2023/01/17 11:41:38;;;;;;;1.13;1.00;;;11.60;92.70;;;;;;4923929;29;20972;-68
2023/01/17 11:44:22;;;;;;;2.10;1.00;;;12.10;92.70;;;;;;4917829;29;20486;-66
2023/01/17 11:47:08;;;;;;;1.67;1.30;;;12.20;90.50;;;;;;4927420;29;20478;-66
2023/01/17 11:49:36;;;;;;;1.15;0.90;;;12.00;91.40;;;;;;4925542;29;20460;-67
2023/01/17 11:52:08;;;;;;;1.90;1.33;;;11.50;90.50;;;;;;4919318;29;20194;-67
2023/01/17 11:54:39;;;;;;;1.77;1.27;;;10.80;90.80;;;;;;4925295;29;20830;-67
2023/01/17 11:57:19;;;;;;;1.50;1.00;;;10.20;92.00;;;;;;4920433;29;20198;-67
2023/01/17 11:59:47;;;;;;;1.23;1.00;;;9.50;92.50;;;;;;4918847;29;20689;-67
2023/01/17 12:02:50;;;;;;;1.40;0.90;;;9.30;91.90;;;;;;4917921;29;20296;-67
2023/01/17 12:05:42;;;;;;;3.35;1.45;;;9.10;92.30;;;;;;4920811;29;20674;-66
2023/01/17 12:08:19;;;;;;;1.90;0.98;;;9.10;93.90;;;;;;4914191;29;20197;-68
2023/01/17 12:10:55;;;;;;;2.35;0.90;;;9.10;93.80;;;;;;4914879;29;20711;-67
2023/01/17 12:16:31;;;;;;;1.90;1.00;;;9.10;93.60;;;;;;4914566;29;20657;-68
2023/01/17 12:19:12;;;;;;;1.13;0.98;;;9.10;93.00;;;;;;4916048;29;20268;-67
2023/01/17 12:21:48;;;;;;;2.38;1.20;;;9.00;94.00;;;;;;4919260;29;20295;-68
2023/01/17 12:24:48;;;;;;;2.15;1.23;;;9.00;93.60;;;;;;4922513;29;20242;-66
2023/01/17 12:27:24;;;;;;;1.50;1.23;;;8.70;92.80;;;;;;4926028;29;20663;-69
2023/01/17 12:30:09;;;;;;;1.15;0.90;;;8.40;93.30;;;;;;4915219;29;20226;-68
2023/01/17 12:32:49;;;;;;;1.25;0.80;;;8.10;93.80;;;;;;4920744;29;20204;-68
2023/01/17 12:35:20;;;;;;;1.35;1.08;;;8.20;92.80;;;;;;4921920;29;20653;-67
2023/01/17 12:37:51;;;;;;;1.55;1.00;;;8.10;93.80;;;;;;4919923;29;20609;-68
2023/01/17 12:40:23;;;;;;;1.02;0.88;;;8.20;93.00;;;;;;4916974;29;20299;-68
2023/01/17 12:42:55;;;;;;;0.98;0.88;;;8.40;93.30;;;;;;4919938;29;20267;-68
2023/01/17 12:45:30;;;;;;;2.60;1.33;;;8.60;93.30;;;;;;4921238;29;20293;-69
2023/01/17 12:48:04;;;;;;;2.10;1.52;;;8.70;93.10;;;;;;4918310;29;20195;-68
2023/01/17 12:50:37;;;;;;;1.95;0.95;;;8.60;92.90;;;;;;4928841;29;20248;-68
2023/01/17 12:53:14;;;;;;;1.40;1.00;;;8.50;93.10;;;;;;4931148;29;20286;-68
2023/01/17 12:55:50;;;;;;;1.70;1.30;;;8.50;92.20;;;;;;4932826;29;20243;-68
2023/01/17 12:58:21;;;;;;;1.95;1.10;;;8.30;93.20;;;;;;4924247;29;20285;-69
2023/01/17 13:00:58;;;;;;;2.60;1.15;;;8.20;93.90;;;;;;4924727;29;20633;-68
2023/01/17 13:03:35;;;;;;;1.38;0.80;;;8.10;93.80;;;;;;4930238;29;20239;-68
2023/01/17 13:06:03;;;;;;;1.25;0.95;;;7.90;93.40;;;;;;4920265;29;20202;-68
2023/01/17 13:08:40;;;;;;;1.85;0.90;;;7.60;94.10;;;;;;4929265;29;20258;-67
2023/01/17 13:11:14;;;;;;;1.23;0.80;;;7.40;96.20;;;;;;4919929;29;20309;-68
2023/01/17 13:13:42;;;;;;;3.22;1.00;;;7.50;95.90;;;;;;4916527;29;20226;-68
2023/01/17 13:16:17;;;;;;;2.25;0.90;;;7.40;94.80;;;;;;4919044;29;20206;-68
2023/01/17 13:18:46;;;;;;;2.65;1.00;;;7.10;94.70;;;;;;4917760;29;20626;-69
2023/01/17 13:21:32;;;;;;;1.75;1.20;;;7.00;94.80;;;;;;4925276;29;20301;-68
2023/01/17 13:24:28;;;;;;;1.30;1.05;;;6.70;94.60;;;;;;4927044;29;20272;-68
2023/01/17 13:27:27;;;;;;;2.20;1.02;;;6.60;95.00;;;;;;4923639;29;20324;-68
2023/01/17 13:30:09;;;;;;;1.10;1.00;;;6.30;95.40;;;;;;4921241;29;20237;-68
2023/01/17 13:32:57;;;;;;;2.25;1.13;;;6.00;96.30;;;;;;4924290;29;20193;-68
2023/01/17 13:35:35;;;;;;;1.20;1.00;;;5.80;96.10;;;;;;4917299;29;20198;-68
2023/01/17 13:38:17;;;;;;;1.55;0.90;;;5.70;96.00;;;;;;4918511;29;20197;-68
2023/01/17 13:40:50;;;;;;;2.78;1.88;;;5.70;96.20;;;;;;4917691;29;20190;-68
2023/01/17 13:43:21;;;;;;;1.92;1.20;;;5.70;96.50;;;;;;4918668;29;20328;-68
2023/01/17 13:45:53;;;;;;;1.48;1.25;;;5.70;96.60;;;;;;4919595;29;20225;-68
2023/01/17 13:48:36;;;;;;;2.03;1.27;;;5.60;96.50;;;;;;4919907;29;20223;-68
2023/01/17 13:51:03;;;;;;;2.05;1.35;;;5.60;97.40;;;;;;4918955;29;20213;-68
2023/01/17 13:53:55;;;;;;;3.33;1.17;;;5.60;97.60;;;;;;4925731;29;20296;-68
2023/01/17 13:56:33;;;;;;;2.00;1.30;;;5.50;97.70;;;;;;4928938;29;20211;-68
2023/01/17 13:59:19;;;;;;;1.95;1.05;;;5.50;97.70;;;;;;4922680;29;20200;-68
2023/01/17 14:01:52;;;;;;;1.67;1.05;;;5.40;97.90;;;;;;4923520;29;20279;-67
2023/01/17 14:04:24;;;;;;;3.95;1.33;;;5.40;98.00;;;;;;4916817;29;20340;-68
2023/01/17 14:06:55;;;;;;;1.67;1.13;;;5.40;98.10;;;;;;4912904;29;20201;-72
2023/01/17 14:09:26;;;;;;;2.05;1.77;;;5.40;98.30;;;;;;4921399;29;20670;-72
2023/01/17 14:11:59;;;;;;;2.00;1.30;;;5.40;98.00;;;;;;4920751;29;20247;-73
2023/01/17 14:14:43;;;;;;;1.63;1.23;;;5.40;98.00;;;;;;4929324;29;20223;-72
2023/01/17 14:17:34;;;;;;;1.85;1.40;;;5.30;96.90;;;;;;4926524;29;20245;-72
2023/01/17 14:20:40;;;;;;;1.90;1.20;;;5.20;97.10;;;;;;4916671;29;20205;-72
2023/01/17 14:23:33;;;;;;;2.25;1.38;;;5.20;97.60;;;;;;4922496;29;20237;-72
2023/01/17 14:26:16;;;;;;;2.20;1.40;;;5.20;97.40;;;;;;4928428;29;20198;-72
2023/01/17 14:28:44;;;;;;;2.75;1.13;;;5.20;97.60;;;;;;4922792;29;20694;-72
2023/01/17 14:31:12;;;;;;;1.50;1.40;;;5.20;98.20;;;;;;4925982;29;20207;-73
2023/01/17 14:33:41;;;;;;;3.22;1.45;;;5.20;98.00;;;;;;4923543;29;20824;-73
2023/01/17 14:36:18;;;;;;;2.15;1.10;;;5.20;97.70;;;;;;4926984;29;20212;-72
2023/01/17 14:38:46;;;;;;;3.20;1.80;;;5.20;98.00;;;;;;4932111;29;20661;-72
2023/01/17 14:41:19;;;;;;;3.15;1.88;;;5.10;98.40;;;;;;4923817;29;20279;-71
2023/01/17 14:43:47;;;;;;;3.47;2.00;;;5.10;98.20;;;;;;4923950;29;20228;-72